METAR Data
IDs: Format: Raw Decoded Include TAF

Data at: 1309 UTC 16 Jul 2019

KFMN 161253Z 09008KT 10SM CLR 20/08 A3011 RMK AO2 SLP120 T02000083
KFMN 161153Z 07007KT 10SM CLR 19/08 A3010 RMK AO2 SLP115 T01940083 10278 20189 53008
KFMN 161053Z AUTO 09008KT 10SM CLR 21/09 A3008 RMK AO2 SLP105 T02110089
KFMN 160953Z AUTO 01010KT 10SM CLR 20/09 A3007 RMK AO2 SLP102 T02000094
KFMN 160853Z AUTO 00000KT 10SM CLR 25/08 A3007 RMK AO2 SLP097 T02500078 56003
KFMN 160753Z AUTO VRB05KT 10SM CLR 26/08 A3007 RMK AO2 SLP099 T02610078
KFMN 160653Z AUTO 10SM CLR 27/08 A3008 RMK AO2 SLP102 T02670078 403670178
KFMN 160553Z AUTO 00000KT 10SM SCT120 27/08 A3008 RMK AO2 SLP106 T02720083 10356 20272 51015
KFMN 160453Z AUTO 10005KT 10SM BKN120 28/08 A3007 RMK AO2 SLP103 T02830078
KFMN 160353Z AUTO 01008KT 10SM CLR 29/08 A3005 RMK AO2 SLP097 T02890078
KFMN 160253Z 30005KT 10SM CLR 32/03 A3003 RMK AO2 SLP090 T03170033 53002
KFMN 160153Z 29010KT 10SM CLR 34/03 A3001 RMK AO2 SLP083 T03390033
KFMN 160053Z 30007G17KT 280V340 10SM CLR 36/04 A3001 RMK AO2 SLP083 T03560044
KFMN 152353Z 24011KT 10SM CLR 35/05 A3002 RMK AO2 LTG DSNT N SLP089 T03500050 10367 20306 56020 $
KFMN 152253Z 26010KT 10SM CLR 36/05 A3004 RMK AO2 SLP095 T03610050
KFMN 152153Z 22016G20KT 10SM CLR 36/04 A3007 RMK AO2 SLP103 T03610044
KFMN 152053Z 24011KT 10SM CLR 36/05 A3009 RMK AO2 SLP113 T03560050 58022
KFMN 151953Z VRB05KT 10SM CLR 34/06 A3012 RMK AO2 LTG DSNT N SLP121 T03440056
KFMN 151853Z VRB04KT 10SM CLR 32/08 A3015 RMK AO2 SLP132 T03220078
KFMN 151753Z 00000KT 10SM CLR 31/09 A3017 RMK AO2 SLP141 T03060089 10306 20178 58010
KFMN 151653Z 09007KT 10SM CLR 29/10 A3018 RMK AO2 SLP147 T02890100
KFMN 151553Z 08007KT 10SM CLR 27/11 A3020 RMK AO2 SLP151 T02670106
KFMN 151453Z 07011KT 10SM CLR 24/10 A3020 RMK AO2 SLP157 T02390100 50000
KFMN 151353Z 06009KT 10SM CLR 22/10 A3021 RMK AO2 SLP161 T02220100
KFMN 151253Z 08008KT 10SM CLR 19/10 A3021 RMK AO2 SLP156 T01940100
KFMN 151153Z 07005KT 10SM CLR 18/11 A3020 RMK AO2 SLP159 T01780106 10233 20178 53003
KFMN 151053Z AUTO 06004KT 10SM CLR 18/11 A3020 RMK AO2 SLP155 T01780111
KFMN 150953Z AUTO 00000KT 10SM CLR 19/11 A3020 RMK AO2 SLP150 T01890111
KFMN 150853Z AUTO 04005KT 10SM CLR 19/12 A3019 RMK AO2 SLP149 T01890117 50004
KFMN 150753Z AUTO 05006KT 10SM CLR 21/11 A3020 RMK AO2 SLP151 T02110106
KFMN 150653Z AUTO 09006KT 10SM CLR 22/11 A3019 RMK AO2 SLP148 T02220111 403500189
KFMN 150553Z AUTO 05008KT 10SM CLR 22/12 A3018 RMK AO2 SLP146 60000 T02220122 10333 20211 51010
KFMN 150453Z AUTO 00000KT 10SM FEW110 23/12 A3017 RMK AO2 WSHFT 0340 RAE04 TSE0358 SLP146 P0000 T02280122
KFMN 150358Z AUTO 10019KT 10SM -RA BKN110 26/10 A3017 RMK AO2 WSHFT 0340 LTG DSNT NE AND E TSE58 P0000 T02560100
KFMN 150353Z AUTO 09018G23KT 10SM -TSRA BKN110 26/10 A3017 RMK AO2 WSHFT 0303 LTG DSNT NE AND E RAB53 TSE0255B31 SLP142 P0000 T02610100
KFMN 150337Z 06007KT 10SM TS BKN110 27/08 A3018 RMK AO2 WSHFT 0303 TSE0255B31 T02670083
KFMN 150323Z 02015KT 10SM BKN100 26/09 A3017 RMK AO2 WSHFT 0303 LTG DSNT E TSE0255 T02610094
KFMN 150316Z 35012KT 10SM BKN100 26/09 A3017 RMK AO2 LTG DSNT E TSE0255 PRESRR T02610089
KFMN 150301Z 03010KT 10SM VCTS SCT100 27/08 A3015 RMK AO2 LTG DSNT NE AND E TSE0255 T02720078 $
KFMN 150253Z 04014G24KT 10SM TS SCT100 27/09 A3014 RMK AO2 PK WND 03027/0238 LTG DSNT NW-E TSB07E24B36 SLP136 T02670089 53007 $
KFMN 150242Z 03019G27KT 10SM TS SCT100 27/08 A3014 RMK AO2 PK WND 03027/0238 LTG DSNT NE AND NW TSB07E24B36 T02670083 $
KFMN 150230Z 02014KT 10SM VCTS BKN100 27/09 A3014 RMK AO2 TSB07E24 T02720089 $
KFMN 150213Z 02009KT 10SM TS FEW110 28/09 A3014 RMK AO2 LTG DSNT N AND NW TSB07 T02780094 $
KFMN 150153Z 10011KT 10SM VCTS CLR 29/09 A3012 RMK AO2 WSHFT 0122 LTG DSNT NE AND NW SLP127 T02890094 $
KFMN 150140Z 06009KT 10SM VCTS FEW110 29/08 A3012 RMK AO2 WSHFT 0122 LTG DSNT NE T02940083 $